createdAt,value
2024-02-16T00:01:51.328Z,13.15
2024-02-16T00:04:23.359Z,12.32
2024-02-16T00:06:55.404Z,13.50
2024-02-16T00:09:28.836Z,12.35
2024-02-16T00:12:00.918Z,11.70
2024-02-16T00:14:32.873Z,11.98
2024-02-16T00:17:05.806Z,12.18
2024-02-16T00:19:37.964Z,11.55
2024-02-16T00:22:10.024Z,12.13
2024-02-16T00:24:41.941Z,11.95
2024-02-16T00:27:15.488Z,12.18
2024-02-16T00:29:50.403Z,11.63
2024-02-16T00:32:25.404Z,12.35
2024-02-16T00:34:58.827Z,12.82
2024-02-16T00:37:30.827Z,13.65
2024-02-16T00:40:02.775Z,12.73
2024-02-16T00:42:34.877Z,12.25
2024-02-16T00:45:07.246Z,13.88
2024-02-16T00:47:41.252Z,13.32
2024-02-16T00:50:13.425Z,13.80
2024-02-16T00:52:47.003Z,14.15
2024-02-16T00:55:19.783Z,15.05
2024-02-16T00:57:51.715Z,12.50
2024-02-16T01:00:25.130Z,12.60
2024-02-16T01:02:57.539Z,12.63
2024-02-16T01:05:29.508Z,12.70
2024-02-16T01:08:01.731Z,11.70
2024-02-16T01:10:33.661Z,12.77
2024-02-16T01:13:06.805Z,12.55
2024-02-16T01:15:38.791Z,11.18
2024-02-16T01:18:10.906Z,12.13
2024-02-16T01:20:42.942Z,11.55
2024-02-16T01:23:14.855Z,12.23
2024-02-16T01:25:47.706Z,12.18
2024-02-16T01:28:19.617Z,11.77
2024-02-16T01:30:52.013Z,11.30
2024-02-16T01:33:24.181Z,12.10
2024-02-16T01:35:56.114Z,12.98
2024-02-16T01:38:27.974Z,10.32
2024-02-16T01:40:59.828Z,11.15
2024-02-16T01:43:32.289Z,12.32
2024-02-16T01:46:04.181Z,11.13
2024-02-16T01:48:36.293Z,10.95
2024-02-16T01:51:10.180Z,11.38
2024-02-16T01:53:42.310Z,10.48
2024-02-16T01:56:14.185Z,11.07
2024-02-16T01:58:46.009Z,10.63
2024-02-16T02:01:17.894Z,10.13
2024-02-16T02:03:49.904Z,10.70
2024-02-16T02:06:22.920Z,10.95
2024-02-16T02:08:54.904Z,10.65
2024-02-16T02:11:26.756Z,10.73
2024-02-16T02:13:58.677Z,10.55
2024-02-16T02:16:33.676Z,10.48
2024-02-16T02:19:09.980Z,11.80
2024-02-16T02:21:42.311Z,11.07
2024-02-16T02:24:14.513Z,12.18
2024-02-16T02:26:47.200Z,10.77
2024-02-16T02:29:19.146Z,11.13
2024-02-16T02:31:50.970Z,11.43
2024-02-16T02:34:22.944Z,11.43
2024-02-16T02:36:54.812Z,12.20
2024-02-16T02:39:27.223Z,11.25
2024-02-16T02:41:59.361Z,11.05
2024-02-16T02:44:32.857Z,12.05
2024-02-16T02:47:04.803Z,11.98
2024-02-16T02:49:37.067Z,11.20
2024-02-16T02:52:09.183Z,11.57
2024-02-16T02:54:41.064Z,11.35
2024-02-16T02:57:12.889Z,11.35
2024-02-16T02:59:46.641Z,11.60
2024-02-16T03:02:18.512Z,12.48
2024-02-16T03:04:50.312Z,11.48
2024-02-16T03:07:22.135Z,11.05
2024-02-16T03:09:54.325Z,11.10
2024-02-16T03:12:26.371Z,11.52
2024-02-16T03:14:58.190Z,12.52
2024-02-16T03:17:30.135Z,12.48
2024-02-16T03:20:01.983Z,11.40
2024-02-16T03:22:33.763Z,12.30
2024-02-16T03:25:06.582Z,12.48
2024-02-16T03:27:38.722Z,12.13
2024-02-16T03:30:11.992Z,12.93
2024-02-16T03:32:43.969Z,12.45
2024-02-16T03:35:15.933Z,12.55
2024-02-16T03:37:47.759Z,11.43
2024-02-16T03:40:19.823Z,12.82
2024-02-16T03:42:54.841Z,13.20
2024-02-16T03:45:28.484Z,11.73
2024-02-16T03:48:00.946Z,12.45
2024-02-16T03:50:32.929Z,12.95
2024-02-16T03:53:05.611Z,11.20
2024-02-16T03:55:37.915Z,13.15
2024-02-16T03:58:09.736Z,10.70
2024-02-16T04:00:41.714Z,12.27
2024-02-16T04:03:13.610Z,13.02
2024-02-16T04:05:45.664Z,12.23
2024-02-16T04:08:17.445Z,12.13
2024-02-16T04:10:49.351Z,11.38
2024-02-16T04:13:21.141Z,11.82
2024-02-16T04:15:55.244Z,12.18
2024-02-16T04:18:27.864Z,12.93
2024-02-16T04:20:59.754Z,12.73
2024-02-16T04:23:31.583Z,12.80
2024-02-16T04:26:03.443Z,12.05
2024-02-16T04:28:36.319Z,12.00
2024-02-16T04:31:08.094Z,11.88
2024-02-16T04:33:40.177Z,12.75
2024-02-16T04:36:12.140Z,11.38
2024-02-16T04:38:44.038Z,12.32
2024-02-16T04:41:16.525Z,12.18
2024-02-16T04:43:48.331Z,12.63
2024-02-16T04:46:20.770Z,12.60
2024-02-16T04:48:52.636Z,11.05
2024-02-16T04:51:24.552Z,13.65
2024-02-16T04:53:56.372Z,12.90
2024-02-16T04:56:28.255Z,13.00
2024-02-16T04:59:00.122Z,13.02
2024-02-16T05:01:32.838Z,13.80
2024-02-16T05:04:05.149Z,12.40
2024-02-16T05:06:41.502Z,13.40
2024-02-16T05:09:13.576Z,13.05
2024-02-16T05:11:46.129Z,13.07
2024-02-16T05:14:18.108Z,14.40
2024-02-16T05:16:51.561Z,13.63
2024-02-16T05:19:24.645Z,13.40
2024-02-16T05:21:56.969Z,13.52
2024-02-16T05:24:28.949Z,13.25
2024-02-16T05:27:00.896Z,13.02
2024-02-16T05:29:32.732Z,12.43
2024-02-16T05:32:04.777Z,14.40
2024-02-16T05:34:39.649Z,13.48
2024-02-16T05:37:11.751Z,12.85
2024-02-16T05:40:09.611Z,13.75
2024-02-16T05:42:41.418Z,12.95
2024-02-16T05:45:13.235Z,13.73
2024-02-16T05:47:49.175Z,12.65
2024-02-16T05:50:23.915Z,13.95
2024-02-16T05:52:56.550Z,13.45
2024-02-16T05:55:28.352Z,13.50
2024-02-16T05:58:00.146Z,13.40
2024-02-16T06:00:36.166Z,13.98
2024-02-16T06:03:08.730Z,14.43
2024-02-16T06:05:41.902Z,13.25
2024-02-16T06:08:14.196Z,13.88
2024-02-16T06:10:52.407Z,13.85
2024-02-16T06:13:24.445Z,14.50
2024-02-16T06:15:56.461Z,14.45
2024-02-16T06:18:31.089Z,13.52
2024-02-16T06:21:03.520Z,14.00
2024-02-16T06:23:35.319Z,12.88
2024-02-16T06:26:08.111Z,14.05
2024-02-16T06:28:39.976Z,15.35
2024-02-16T06:31:12.245Z,14.75
2024-02-16T06:33:44.288Z,16.10
2024-02-16T06:36:16.157Z,15.60
2024-02-16T06:38:48.018Z,16.67
2024-02-16T06:41:19.940Z,16.40
2024-02-16T06:43:51.744Z,15.68
2024-02-16T06:46:23.756Z,13.88
2024-02-16T06:48:57.957Z,14.57
2024-02-16T06:51:30.079Z,13.95
2024-02-16T06:54:02.304Z,13.38
2024-02-16T06:56:34.662Z,15.45
2024-02-16T06:59:06.476Z,12.48
2024-02-16T07:01:38.322Z,13.80
2024-02-16T07:04:10.716Z,13.60
2024-02-16T07:06:42.712Z,13.88
2024-02-16T07:09:17.674Z,13.27
2024-02-16T07:11:54.228Z,14.52
2024-02-16T07:14:26.370Z,13.65
2024-02-16T07:16:58.163Z,12.80
2024-02-16T07:19:30.330Z,13.80
2024-02-16T07:22:02.174Z,13.77
2024-02-16T07:24:34.784Z,14.93
2024-02-16T07:27:06.685Z,13.73
2024-02-16T07:29:40.354Z,14.80
2024-02-16T07:32:13.779Z,15.70
2024-02-16T07:34:49.677Z,14.45
2024-02-16T07:37:21.513Z,15.68
2024-02-16T07:39:54.025Z,15.60
2024-02-16T07:42:25.890Z,15.18
2024-02-16T07:44:57.690Z,15.10
2024-02-16T07:47:29.658Z,15.65
2024-02-16T07:50:01.672Z,15.20
2024-02-16T07:52:33.634Z,15.30
2024-02-16T07:55:06.561Z,14.73
2024-02-16T07:57:38.490Z,15.98
2024-02-16T08:00:12.291Z,14.32
2024-02-16T08:02:47.264Z,13.63
2024-02-16T08:05:20.820Z,14.55
2024-02-16T08:07:52.957Z,13.10
2024-02-16T08:10:26.488Z,13.45
2024-02-16T08:12:58.339Z,15.60
2024-02-16T08:15:30.730Z,13.52
2024-02-16T08:18:02.778Z,14.43
2024-02-16T08:20:34.849Z,14.57
2024-02-16T08:23:06.619Z,13.02
2024-02-16T08:25:38.483Z,14.18
2024-02-16T08:28:10.286Z,14.82
2024-02-16T08:30:45.398Z,14.57
2024-02-16T08:33:17.841Z,14.10
2024-02-16T08:35:51.781Z,13.30
2024-02-16T08:38:23.691Z,15.90
2024-02-16T08:40:55.463Z,16.33
2024-02-16T08:43:27.261Z,14.32
2024-02-16T08:45:59.064Z,14.27
2024-02-16T08:48:31.005Z,13.75
2024-02-16T08:51:03.853Z,13.88
2024-02-16T08:53:36.093Z,13.73
2024-02-16T08:56:12.940Z,14.93
2024-02-16T08:58:44.823Z,14.77
2024-02-16T09:01:19.777Z,15.48
2024-02-16T09:03:51.818Z,13.60
2024-02-16T09:06:23.736Z,15.07
2024-02-16T09:08:56.606Z,15.88
2024-02-16T09:11:29.254Z,15.07
2024-02-16T09:14:01.846Z,13.55
2024-02-16T09:16:33.675Z,13.55
2024-02-16T09:19:05.786Z,14.45
2024-02-16T09:21:37.782Z,15.30
2024-02-16T09:24:11.936Z,15.20
2024-02-16T09:26:43.902Z,14.57
2024-02-16T09:29:15.840Z,15.77
2024-02-16T09:31:50.762Z,15.82
2024-02-16T09:34:22.636Z,16.08
2024-02-16T09:36:54.501Z,18.90
2024-02-16T09:39:28.550Z,17.10
2024-02-16T09:42:00.518Z,15.57
2024-02-16T09:44:36.733Z,15.18
2024-02-16T09:47:12.966Z,16.48
2024-02-16T09:49:44.982Z,14.93
2024-02-16T09:52:16.847Z,15.32
2024-02-16T09:54:48.841Z,14.57
2024-02-16T09:57:20.815Z,16.42
2024-02-16T09:59:52.742Z,15.63
2024-02-16T10:02:25.186Z,16.50
2024-02-16T10:04:58.146Z,15.45
2024-02-16T10:07:34.273Z,14.82
2024-02-16T10:10:15.403Z,15.10
2024-02-16T10:12:47.201Z,14.73
2024-02-16T10:15:26.343Z,14.60
2024-02-16T10:18:05.688Z,13.25
2024-02-16T10:20:40.159Z,15.10
2024-02-16T10:23:13.071Z,16.08
2024-02-16T10:25:44.870Z,13.88
2024-02-16T10:28:18.211Z,15.52
2024-02-16T10:30:50.378Z,13.65
2024-02-16T10:33:22.533Z,14.55
2024-02-16T10:35:57.197Z,13.45
2024-02-16T10:38:30.771Z,13.73
2024-02-16T10:41:02.992Z,13.02
2024-02-16T10:43:34.861Z,13.45
2024-02-16T10:46:06.900Z,12.93
2024-02-16T10:48:38.878Z,12.70
2024-02-16T10:51:12.980Z,12.00
2024-02-16T10:53:45.900Z,11.95
2024-02-16T10:56:17.803Z,12.48
2024-02-16T10:58:50.503Z,13.57
2024-02-16T11:01:23.415Z,13.18
2024-02-16T11:04:03.886Z,13.82
2024-02-16T11:06:57.988Z,13.27
2024-02-16T11:09:31.409Z,14.32
2024-02-16T11:12:05.598Z,12.75
2024-02-16T11:14:41.802Z,14.02
2024-02-16T11:17:15.504Z,13.23
2024-02-16T11:19:48.989Z,13.77
2024-02-16T11:22:21.856Z,13.30
2024-02-16T11:24:57.447Z,13.68
2024-02-16T11:27:33.099Z,13.98
2024-02-16T11:30:06.509Z,13.27
2024-02-16T11:32:38.522Z,13.00
2024-02-16T11:35:10.618Z,11.60
2024-02-16T11:37:43.537Z,12.25
2024-02-16T11:40:15.402Z,12.23
2024-02-16T11:42:48.347Z,11.95
2024-02-16T11:45:20.337Z,11.60
2024-02-16T11:47:52.181Z,11.82
2024-02-16T11:50:24.096Z,12.07
2024-02-16T11:52:56.297Z,12.10
2024-02-16T11:55:28.211Z,12.32
2024-02-16T11:58:00.211Z,13.35
2024-02-16T12:00:32.115Z,12.63
2024-02-16T12:03:04.197Z,12.60
2024-02-16T12:05:36.141Z,13.73
2024-02-16T12:08:09.017Z,13.02
2024-02-16T12:10:40.885Z,13.75
2024-02-16T12:13:12.716Z,12.98
2024-02-16T12:15:49.454Z,12.82
2024-02-16T12:18:26.121Z,13.05
2024-02-16T12:21:08.029Z,12.50
2024-02-16T12:23:40.124Z,13.75
2024-02-16T12:26:11.915Z,13.85
2024-02-16T12:28:44.084Z,15.02
2024-02-16T12:31:22.580Z,14.20
2024-02-16T12:33:54.700Z,13.98
2024-02-16T12:36:27.805Z,15.07
2024-02-16T12:38:59.691Z,15.75
2024-02-16T12:41:32.408Z,13.52
2024-02-16T12:44:04.269Z,12.40
2024-02-16T12:46:36.130Z,13.07
2024-02-16T12:49:08.566Z,14.15
2024-02-16T12:51:40.908Z,13.32
2024-02-16T12:54:15.633Z,11.68
2024-02-16T12:56:48.762Z,12.68
2024-02-16T12:59:20.593Z,10.90
2024-02-16T13:01:52.534Z,11.38
2024-02-16T13:04:24.530Z,11.70
2024-02-16T13:06:56.579Z,11.20
2024-02-16T13:09:29.946Z,12.18
2024-02-16T13:12:01.804Z,12.05
2024-02-16T13:14:33.628Z,10.98
2024-02-16T13:17:05.754Z,11.32
2024-02-16T13:19:37.660Z,10.52
2024-02-16T13:22:09.493Z,11.02
2024-02-16T13:24:42.908Z,10.23
2024-02-16T13:27:14.928Z,10.93
2024-02-16T13:29:46.791Z,10.68
2024-02-16T13:32:18.641Z,11.32
2024-02-16T13:34:50.460Z,12.10
2024-02-16T13:37:22.249Z,10.23
2024-02-16T13:39:54.021Z,9.63
2024-02-16T13:42:27.650Z,9.95
2024-02-16T13:44:59.797Z,9.30
2024-02-16T13:47:32.152Z,9.38
2024-02-16T13:50:04.192Z,9.23
2024-02-16T13:52:36.555Z,8.82
2024-02-16T13:55:09.586Z,9.13
2024-02-16T13:57:41.590Z,10.05
2024-02-16T14:00:14.036Z,9.57
2024-02-16T14:02:45.989Z,8.30
2024-02-16T14:05:18.012Z,8.48
2024-02-16T14:07:57.722Z,9.15
2024-02-16T14:10:36.163Z,9.60
2024-02-16T14:13:08.004Z,8.93
2024-02-16T14:15:39.938Z,8.75
2024-02-16T14:18:17.330Z,8.48
2024-02-16T14:20:54.112Z,8.68
2024-02-16T14:23:25.947Z,10.02
2024-02-16T14:25:58.201Z,9.45
2024-02-16T14:28:30.004Z,9.80
2024-02-16T14:31:01.837Z,9.57
2024-02-16T14:33:35.011Z,8.63
2024-02-16T14:36:10.825Z,7.95
2024-02-16T14:38:42.778Z,7.78
2024-02-16T14:41:15.049Z,8.38
2024-02-16T14:43:47.749Z,8.35
2024-02-16T14:46:21.391Z,7.82
2024-02-16T14:48:53.398Z,8.07
2024-02-16T14:51:25.340Z,7.57
2024-02-16T14:53:57.151Z,8.07
2024-02-16T14:56:30.277Z,7.57
2024-02-16T14:59:02.133Z,8.35
2024-02-16T15:01:34.025Z,8.25
2024-02-16T15:04:06.406Z,8.32
2024-02-16T15:06:38.569Z,9.70
2024-02-16T15:09:11.680Z,8.77
2024-02-16T15:11:43.616Z,8.90
2024-02-16T15:14:18.411Z,8.48
2024-02-16T15:16:52.080Z,8.70
2024-02-16T15:19:23.981Z,8.82
2024-02-16T15:21:56.035Z,9.55
2024-02-16T15:24:28.072Z,9.07
2024-02-16T15:26:59.988Z,9.98
2024-02-16T15:29:32.050Z,10.43
2024-02-16T15:32:04.201Z,10.43
2024-02-16T15:34:36.281Z,10.98
2024-02-16T15:37:08.098Z,11.35
2024-02-16T15:39:40.685Z,11.68
2024-02-16T15:42:14.045Z,11.15
2024-02-16T15:44:45.881Z,12.32
2024-02-16T15:47:17.642Z,17.15
2024-02-16T15:49:49.621Z,24.60
2024-02-16T15:52:21.428Z,26.50
2024-02-16T15:54:53.269Z,26.88
2024-02-16T15:57:25.150Z,18.83
2024-02-16T15:59:57.212Z,21.50
2024-02-16T16:02:29.042Z,14.27
2024-02-16T16:05:01.017Z,16.95
2024-02-16T16:07:32.857Z,22.27
2024-02-16T16:10:05.094Z,13.00
2024-02-16T16:12:36.878Z,12.23
2024-02-16T16:15:09.129Z,11.50
2024-02-16T16:17:41.037Z,13.18
2024-02-16T16:20:13.344Z,13.10
2024-02-16T16:22:45.359Z,13.07
2024-02-16T16:25:17.146Z,16.08
2024-02-16T16:27:49.234Z,18.77
2024-02-16T16:30:21.104Z,16.17
2024-02-16T16:32:53.385Z,15.43
2024-02-16T16:35:25.625Z,12.98
2024-02-16T16:38:00.609Z,12.65
2024-02-16T16:40:33.611Z,13.68
2024-02-16T16:43:05.863Z,13.20
2024-02-16T16:45:39.226Z,12.02
2024-02-16T16:48:11.368Z,12.15
2024-02-16T16:50:43.259Z,12.18
2024-02-16T16:53:15.046Z,12.98
2024-02-16T17:04:02.484Z,11.80
2024-02-16T17:06:35.197Z,12.45
2024-02-16T17:09:11.378Z,13.00
2024-02-16T17:11:43.744Z,15.82
2024-02-16T17:14:15.733Z,36.65
2024-02-16T17:16:48.806Z,43.25
2024-02-16T17:19:20.979Z,30.45
2024-02-16T17:21:53.027Z,25.25
2024-02-16T17:24:26.269Z,21.35
2024-02-16T17:26:58.813Z,19.88
2024-02-16T17:29:31.512Z,21.55
2024-02-16T17:32:03.947Z,17.38
2024-02-16T17:34:35.989Z,16.45
2024-02-16T17:37:08.038Z,16.42
2024-02-16T17:39:42.834Z,14.27
2024-02-16T17:42:16.541Z,13.85
2024-02-16T17:44:48.633Z,13.77
2024-02-16T17:47:20.532Z,13.07
2024-02-16T17:49:52.505Z,13.55
2024-02-16T17:52:24.421Z,14.90
2024-02-16T17:54:56.357Z,13.82
2024-02-16T17:57:28.430Z,15.63
2024-02-16T18:00:00.805Z,16.00
2024-02-16T18:02:39.944Z,20.02
2024-02-16T18:05:14.432Z,23.98
2024-02-16T18:07:46.673Z,23.02
2024-02-16T18:10:19.337Z,25.88
2024-02-16T18:12:51.520Z,21.30
2024-02-16T18:15:23.828Z,27.98
2024-02-16T18:17:57.594Z,24.60
2024-02-16T18:20:29.576Z,27.35
2024-02-16T18:23:01.455Z,26.63
2024-02-16T18:25:33.376Z,25.65
2024-02-16T18:28:05.678Z,28.65
2024-02-16T18:30:37.586Z,25.13
2024-02-16T18:33:09.567Z,27.25
2024-02-16T18:35:42.046Z,26.08
2024-02-16T18:38:13.906Z,26.60
2024-02-16T18:40:45.761Z,23.30
2024-02-16T18:43:17.623Z,28.13
2024-02-16T18:45:49.598Z,25.52
2024-02-16T18:48:25.810Z,27.52
2024-02-16T18:50:57.881Z,31.38
2024-02-16T18:53:30.177Z,24.30
2024-02-16T18:56:02.108Z,27.63
2024-02-16T18:58:34.040Z,25.30
2024-02-16T19:01:06.219Z,32.50
2024-02-16T19:03:38.432Z,36.95
2024-02-16T19:06:10.435Z,40.67
2024-02-16T19:08:42.424Z,37.50
2024-02-16T19:11:14.395Z,42.75
2024-02-16T19:13:46.927Z,40.40
2024-02-16T19:16:19.313Z,34.97
2024-02-16T19:18:51.357Z,34.42
2024-02-16T19:21:23.294Z,34.33
2024-02-16T19:23:55.181Z,33.53
2024-02-16T19:26:28.179Z,35.00
2024-02-16T19:29:00.418Z,33.85
2024-02-16T19:31:34.634Z,32.00
2024-02-16T19:34:06.686Z,30.40
2024-02-16T19:36:39.011Z,30.02
2024-02-16T19:39:16.863Z,30.00
2024-02-16T19:41:50.017Z,31.42
2024-02-16T19:44:23.043Z,32.67
2024-02-16T19:46:54.941Z,30.63
2024-02-16T19:49:27.038Z,29.75
2024-02-16T19:51:59.022Z,28.27
2024-02-16T19:54:31.102Z,29.25
2024-02-16T19:57:04.450Z,26.30
2024-02-16T19:59:36.488Z,24.60
2024-02-16T20:02:08.540Z,23.38
2024-02-16T20:04:40.428Z,22.42
2024-02-16T20:07:12.523Z,24.23
2024-02-16T20:09:44.492Z,25.45
2024-02-16T20:12:16.456Z,26.75
2024-02-16T20:14:49.045Z,24.67
2024-02-16T20:17:21.179Z,23.42
2024-02-16T20:19:55.073Z,25.80
2024-02-16T20:22:27.029Z,22.88
2024-02-16T20:24:58.955Z,25.13
2024-02-16T20:27:30.972Z,27.70
2024-02-16T20:30:03.467Z,26.60
2024-02-16T20:32:35.748Z,28.67
2024-02-16T20:35:08.052Z,24.30
2024-02-16T20:37:40.115Z,23.33
2024-02-16T20:40:12.454Z,23.65
2024-02-16T20:42:45.238Z,22.42
2024-02-16T20:45:17.450Z,23.15
2024-02-16T20:47:49.464Z,25.25
2024-02-16T20:50:23.400Z,22.95
2024-02-16T20:52:55.316Z,23.77
2024-02-16T20:55:27.311Z,23.77
2024-02-16T20:58:00.933Z,25.20
2024-02-16T21:00:33.074Z,24.13
2024-02-16T21:03:05.241Z,23.52
2024-02-16T21:05:37.482Z,24.55
2024-02-16T21:08:09.629Z,23.83
2024-02-16T21:10:42.108Z,23.50
2024-02-16T21:13:13.983Z,23.33
2024-02-16T21:15:47.263Z,23.80
2024-02-16T21:18:19.838Z,24.77
2024-02-16T21:20:51.907Z,24.13
2024-02-16T21:23:23.780Z,24.83
2024-02-16T21:25:55.660Z,24.15
2024-02-16T21:28:27.563Z,25.40
2024-02-16T21:30:59.427Z,25.35
2024-02-16T21:33:31.863Z,24.85
2024-02-16T21:36:11.353Z,24.88
2024-02-16T21:38:44.007Z,24.48
2024-02-16T21:41:16.954Z,23.60
2024-02-16T21:43:50.961Z,25.52
2024-02-16T21:46:27.650Z,24.05
2024-02-16T21:49:09.636Z,24.02
2024-02-16T21:51:43.678Z,24.40
2024-02-16T21:54:15.631Z,25.58
2024-02-16T21:56:47.506Z,27.13
2024-02-16T21:59:19.394Z,26.02
2024-02-16T22:01:52.593Z,27.98
2024-02-16T22:04:24.695Z,26.00
2024-02-16T22:06:56.854Z,24.85
2024-02-16T22:09:29.121Z,27.52
2024-02-16T22:12:01.188Z,26.58
2024-02-16T22:14:33.148Z,26.85
2024-02-16T22:17:05.088Z,27.95
2024-02-16T22:19:37.027Z,27.55
2024-02-16T22:22:09.082Z,25.20
2024-02-16T22:24:41.390Z,25.90
2024-02-16T22:27:13.510Z,26.67
2024-02-16T22:29:46.469Z,27.25
2024-02-16T22:32:18.930Z,30.27
2024-02-16T22:34:51.180Z,28.38
2024-02-16T22:37:23.290Z,28.92
2024-02-16T22:39:55.222Z,27.25
2024-02-16T22:42:27.223Z,29.90
2024-02-16T22:44:59.154Z,29.27
2024-02-16T22:47:31.479Z,29.95
2024-02-16T22:50:03.531Z,26.90
2024-02-16T22:52:35.513Z,26.55
2024-02-16T22:55:07.921Z,27.88
2024-02-16T22:57:39.858Z,28.52
2024-02-16T23:00:19.706Z,28.65
2024-02-16T23:02:56.002Z,31.73
2024-02-16T23:05:28.055Z,28.08
2024-02-16T23:08:00.052Z,28.13
2024-02-16T23:10:35.382Z,28.83
2024-02-16T23:13:07.294Z,28.85
2024-02-16T23:15:39.916Z,28.02
2024-02-16T23:18:12.198Z,28.90
2024-02-16T23:20:44.729Z,30.38
2024-02-16T23:23:16.675Z,29.77
2024-02-16T23:25:48.768Z,31.27
2024-02-16T23:28:21.849Z,29.95
2024-02-16T23:30:54.045Z,28.40
2024-02-16T23:33:26.031Z,29.08
2024-02-16T23:35:58.123Z,28.58
2024-02-16T23:38:30.526Z,28.15
2024-02-16T23:41:02.841Z,30.58
2024-02-16T23:43:34.729Z,29.33
2024-02-16T23:46:09.942Z,30.60
2024-02-16T23:48:42.011Z,35.97
2024-02-16T23:51:13.997Z,32.75
2024-02-16T23:53:46.101Z,32.50
2024-02-16T23:56:17.973Z,31.13
2024-02-16T23:58:49.859Z,28.23
